Time;durP1;ratioP1;P1;durP2;ratioP2;P2;SDS_P1;SDS_P2;PMS_P1;PMS_P2;Temp;Humidity;BMP_temperature;BMP_pressure;BME280_temperature;BME280_humidity;BME280_pressure;Samples;Min_cycle;Max_cycle;Signal;HPM_P1;HPM_P2
2023/03/22 00:00:16;;;;;;;4.10;2.83;;;23.90;57.20;;;;;;5070346;28;20528;-81
2023/03/22 00:02:44;;;;;;;3.23;2.37;;;23.90;57.20;;;;;;5067246;28;20447;-81
2023/03/22 00:05:12;;;;;;;3.73;2.80;;;23.90;57.20;;;;;;5077299;28;20455;-80
2023/03/22 00:07:42;;;;;;;3.57;3.27;;;23.90;57.20;;;;;;5068306;28;20518;-80
2023/03/22 00:10:10;;;;;;;2.77;2.53;;;23.90;57.20;;;;;;5069375;28;20957;-81
2023/03/22 00:12:39;;;;;;;3.73;3.27;;;23.80;57.20;;;;;;5070158;28;20810;-80
2023/03/22 00:15:10;;;;;;;4.67;2.83;;;23.80;57.20;;;;;;5071627;28;20448;-81
2023/03/22 00:17:38;;;;;;;2.87;2.67;;;23.90;57.20;;;;;;5071244;28;20462;-80
2023/03/22 00:20:08;;;;;;;3.27;2.97;;;23.80;57.20;;;;;;5075660;28;20491;-81
2023/03/22 00:22:36;;;;;;;3.97;2.87;;;23.80;57.10;;;;;;5069156;28;20457;-81
2023/03/22 00:25:05;;;;;;;3.33;2.80;;;23.80;57.10;;;;;;5072897;28;20521;-81
2023/03/22 00:27:33;;;;;;;2.90;2.70;;;23.80;57.10;;;;;;5072493;28;20458;-81
2023/03/22 00:30:01;;;;;;;3.77;2.83;;;23.80;57.10;;;;;;5073073;28;20511;-81
2023/03/22 00:32:34;;;;;;;3.23;2.53;;;23.80;57.10;;;;;;5076202;28;20938;-81
2023/03/22 00:35:02;;;;;;;5.10;2.47;;;23.80;57.10;;;;;;5072993;28;20954;-81
2023/03/22 00:37:37;;;;;;;3.00;2.70;;;23.80;57.10;;;;;;5071723;28;21008;-81
2023/03/22 00:40:07;;;;;;;3.87;3.57;;;23.80;57.10;;;;;;5072961;28;20470;-80
2023/03/22 00:42:36;;;;;;;2.63;2.40;;;23.80;57.00;;;;;;5073194;28;20546;-81
2023/03/22 00:45:06;;;;;;;3.00;2.73;;;23.80;57.10;;;;;;5072953;28;20446;-81
2023/03/22 00:47:35;;;;;;;2.67;2.27;;;23.80;57.00;;;;;;5041548;28;20466;-80
2023/03/22 00:50:05;;;;;;;2.83;2.63;;;23.80;57.00;;;;;;5054035;28;20980;-81
2023/03/22 00:52:33;;;;;;;2.40;2.20;;;23.80;57.00;;;;;;5072715;28;20538;-81
2023/03/22 00:55:01;;;;;;;2.70;2.50;;;23.80;57.00;;;;;;5054943;28;20462;-81
2023/03/22 00:57:29;;;;;;;2.97;2.77;;;23.80;57.00;;;;;;5053270;28;20463;-81
2023/03/22 00:59:58;;;;;;;2.60;2.40;;;23.80;57.00;;;;;;5054489;28;20968;-81
2023/03/22 01:02:28;;;;;;;2.47;2.27;;;23.80;57.00;;;;;;5054879;28;20475;-81
2023/03/22 01:04:58;;;;;;;2.67;2.47;;;23.80;57.10;;;;;;5071939;28;20453;-80
2023/03/22 01:07:26;;;;;;;3.47;3.00;;;23.70;57.00;;;;;;5052486;28;20516;-80
2023/03/22 01:09:54;;;;;;;2.43;2.23;;;23.80;57.00;;;;;;5054411;28;20505;-81
2023/03/22 01:12:22;;;;;;;2.93;2.73;;;23.70;57.00;;;;;;5066569;28;20471;-81
2023/03/22 01:14:50;;;;;;;5.27;2.90;;;23.80;57.00;;;;;;5078446;28;20536;-80
2023/03/22 01:17:19;;;;;;;2.90;2.47;;;23.80;57.00;;;;;;5057138;28;20733;-81
2023/03/22 01:19:47;;;;;;;2.27;2.07;;;23.70;57.00;;;;;;5053554;28;20476;-81
2023/03/22 01:22:16;;;;;;;2.97;2.70;;;23.70;57.00;;;;;;5072802;28;20929;-81
2023/03/22 01:24:45;;;;;;;2.90;2.37;;;23.70;57.00;;;;;;5053980;28;20487;-81
2023/03/22 01:27:13;;;;;;;2.30;2.10;;;23.70;57.00;;;;;;5069840;28;20886;-81
2023/03/22 01:29:41;;;;;;;2.87;2.63;;;23.70;57.00;;;;;;5072171;28;20480;-81
2023/03/22 01:32:09;;;;;;;2.40;2.20;;;23.70;57.00;;;;;;5054512;28;20496;-81
2023/03/22 01:34:37;;;;;;;2.53;2.30;;;23.70;57.00;;;;;;5049368;28;20461;-81
2023/03/22 01:37:06;;;;;;;2.80;2.60;;;23.70;57.00;;;;;;5053248;28;20473;-81
2023/03/22 01:39:36;;;;;;;2.77;2.47;;;23.70;57.00;;;;;;5055080;28;20469;-81
2023/03/22 01:42:12;;;;;;;2.50;2.30;;;23.70;57.00;;;;;;5055741;28;20998;-81
2023/03/22 01:44:43;;;;;;;2.57;2.30;;;23.70;57.00;;;;;;5055359;28;20497;-80
2023/03/22 01:47:11;;;;;;;2.03;1.93;;;23.70;57.00;;;;;;5052947;28;20520;-81
2023/03/22 01:49:40;;;;;;;2.60;2.40;;;23.70;56.90;;;;;;5055094;28;20468;-81
2023/03/22 01:52:11;;;;;;;2.30;2.20;;;23.70;56.90;;;;;;5071955;28;20451;-81
2023/03/22 01:54:53;;;;;;;4.53;2.33;;;23.70;56.90;;;;;;5050148;28;20471;-81
2023/03/22 01:57:36;;;;;;;3.13;2.47;;;23.70;56.90;;;;;;5053357;28;20972;-81
2023/03/22 02:00:09;;;;;;;2.20;2.00;;;23.70;56.90;;;;;;5053820;28;20870;-81
2023/03/22 02:02:43;;;;;;;2.70;2.50;;;23.70;56.90;;;;;;5053589;28;20520;-81
2023/03/22 02:05:22;;;;;;;3.00;2.67;;;23.70;56.90;;;;;;5059532;28;20464;-81
2023/03/22 02:07:51;;;;;;;2.30;2.20;;;23.70;56.90;;;;;;5049711;28;20466;-81
2023/03/22 02:10:26;;;;;;;2.47;2.13;;;23.70;56.90;;;;;;5053399;28;20460;-81
2023/03/22 02:13:37;;;;;;;3.87;2.33;;;23.70;56.90;;;;;;5053676;28;20454;-81
2023/03/22 02:22:51;;;;;;;2.20;2.10;;;23.60;56.90;;;;;;4927488;23;20509;-77
2023/03/22 02:25:51;;;;;;;2.30;2.10;;;23.70;56.90;;;;;;4932659;29;20512;-77
2023/03/22 02:28:28;;;;;;;2.33;2.23;;;23.60;56.90;;;;;;4927856;29;20462;-78
2023/03/22 02:31:26;;;;;;;2.70;2.50;;;23.60;56.90;;;;;;4943727;29;20502;-76
2023/03/22 02:34:26;;;;;;;2.53;2.33;;;23.60;56.90;;;;;;4926130;29;20457;-76
2023/03/22 02:37:34;;;;;;;3.37;2.47;;;23.60;56.90;;;;;;4932551;29;20970;-76
2023/03/22 02:40:11;;;;;;;2.50;2.30;;;23.60;56.90;;;;;;4921274;29;20557;-76
2023/03/22 02:42:49;;;;;;;2.43;2.23;;;23.60;56.90;;;;;;4922184;29;20469;-78
2023/03/22 02:45:27;;;;;;;2.90;2.07;;;23.60;56.90;;;;;;4938164;29;20547;-77
2023/03/22 02:48:01;;;;;;;3.30;2.63;;;23.60;56.90;;;;;;4948849;29;20471;-76
2023/03/22 02:50:36;;;;;;;2.90;2.67;;;23.60;56.90;;;;;;4931666;29;20473;-76
2023/03/22 02:53:09;;;;;;;3.40;2.37;;;23.60;56.90;;;;;;4932033;29;21005;-77
2023/03/22 02:55:44;;;;;;;2.30;2.10;;;23.60;56.90;;;;;;4913344;29;20457;-76
2023/03/22 02:58:16;;;;;;;2.70;2.50;;;23.60;56.90;;;;;;4921008;29;20515;-79
2023/03/22 03:00:48;;;;;;;2.47;2.30;;;23.60;56.90;;;;;;4933240;29;20481;-76
2023/03/22 03:03:18;;;;;;;2.17;2.00;;;23.50;56.90;;;;;;4931495;29;20821;-78
2023/03/22 03:05:52;;;;;;;2.17;1.97;;;23.50;56.90;;;;;;4932133;29;21051;-76
2023/03/22 03:08:22;;;;;;;2.60;2.40;;;23.50;56.90;;;;;;4932620;29;21356;-75
2023/03/22 03:10:53;;;;;;;2.77;2.57;;;23.50;56.90;;;;;;4931867;29;20538;-76
2023/03/22 03:13:21;;;;;;;2.13;2.03;;;23.50;56.90;;;;;;4930975;29;20555;-78
2023/03/22 03:15:53;;;;;;;2.73;2.53;;;23.50;56.90;;;;;;4932340;29;20484;-76
2023/03/22 03:18:50;;;;;;;2.50;2.30;;;23.50;56.90;;;;;;4926386;29;20519;-80
2023/03/22 03:21:29;;;;;;;2.10;1.90;;;23.50;56.90;;;;;;4937194;29;20591;-76
2023/03/22 03:24:06;;;;;;;2.40;2.20;;;23.50;56.90;;;;;;4933891;29;20806;-77
2023/03/22 03:26:42;;;;;;;2.00;1.90;;;23.50;56.90;;;;;;4944722;29;20498;-76
2023/03/22 03:29:18;;;;;;;1.77;1.67;;;23.50;56.80;;;;;;4914307;29;20440;-76
2023/03/22 03:31:55;;;;;;;2.20;1.93;;;23.50;56.90;;;;;;4936910;29;20971;-76
2023/03/22 03:34:29;;;;;;;2.13;2.03;;;23.50;56.90;;;;;;4931758;29;20463;-76
2023/03/22 03:37:00;;;;;;;2.80;2.30;;;23.50;56.80;;;;;;4933458;29;20816;-76
2023/03/22 03:39:32;;;;;;;2.50;2.30;;;23.50;56.90;;;;;;4931306;29;20461;-78
2023/03/22 03:42:05;;;;;;;1.90;1.80;;;23.40;56.80;;;;;;4931041;29;20487;-79
2023/03/22 03:44:36;;;;;;;2.20;2.00;;;23.50;56.80;;;;;;4913528;29;20484;-76
2023/03/22 03:47:07;;;;;;;1.93;1.83;;;23.40;56.80;;;;;;4912692;29;21057;-75
2023/03/22 03:49:35;;;;;;;2.40;2.20;;;23.40;56.80;;;;;;4917600;29;20459;-76
2023/03/22 03:52:05;;;;;;;2.07;1.93;;;23.40;56.80;;;;;;4941903;29;20538;-79
2023/03/22 03:54:34;;;;;;;2.17;2.03;;;23.40;56.80;;;;;;4934498;29;20495;-76
2023/03/22 03:57:06;;;;;;;1.97;1.87;;;23.40;56.80;;;;;;4935467;29;20467;-76
2023/03/22 03:59:34;;;;;;;2.00;1.90;;;23.40;56.80;;;;;;4934784;29;20514;-76
2023/03/22 04:02:10;;;;;;;1.77;1.67;;;23.40;56.80;;;;;;4930037;29;21002;-75
2023/03/22 04:04:38;;;;;;;2.20;2.10;;;23.40;56.70;;;;;;4934469;29;20483;-75
2023/03/22 04:07:07;;;;;;;2.77;2.30;;;23.40;56.70;;;;;;4936591;29;20440;-76
2023/03/22 04:09:39;;;;;;;2.00;1.80;;;23.40;56.70;;;;;;4935239;29;20452;-76
2023/03/22 04:12:19;;;;;;;2.37;2.17;;;23.40;56.70;;;;;;4934540;29;20480;-76
2023/03/22 04:15:08;;;;;;;2.17;2.07;;;23.40;56.70;;;;;;4935994;29;20954;-75
2023/03/22 04:17:36;;;;;;;2.47;2.27;;;23.40;56.70;;;;;;4930051;29;20523;-76
2023/03/22 04:20:06;;;;;;;2.03;1.87;;;23.40;56.70;;;;;;4940271;29;20465;-76
2023/03/22 04:22:37;;;;;;;2.30;2.00;;;23.40;56.70;;;;;;4934093;29;20499;-76
2023/03/22 04:25:10;;;;;;;2.53;2.10;;;23.40;56.70;;;;;;4939560;29;20535;-76
2023/03/22 04:27:44;;;;;;;2.67;2.30;;;23.40;56.70;;;;;;4953534;29;20463;-77
2023/03/22 04:30:17;;;;;;;1.87;1.77;;;23.40;56.70;;;;;;4946394;29;20490;-78
2023/03/22 04:33:05;;;;;;;1.90;1.80;;;23.40;56.70;;;;;;4930285;29;20457;-76
2023/03/22 04:36:09;;;;;;;2.20;2.10;;;23.30;56.70;;;;;;4935755;29;20482;-77
2023/03/22 04:38:49;;;;;;;1.70;1.60;;;23.30;56.80;;;;;;4937017;29;20530;-77
2023/03/22 04:41:21;;;;;;;2.37;2.17;;;23.30;56.80;;;;;;4927531;29;20473;-79
2023/03/22 04:43:56;;;;;;;1.90;1.80;;;23.30;56.80;;;;;;4937591;29;20523;-77
2023/03/22 04:46:24;;;;;;;1.90;1.80;;;23.40;56.80;;;;;;4928823;29;20464;-75
2023/03/22 04:49:00;;;;;;;1.53;1.43;;;23.40;56.80;;;;;;4947592;29;21102;-75
2023/03/22 04:51:30;;;;;;;2.20;2.10;;;23.40;56.80;;;;;;4933998;29;20479;-76
2023/03/22 04:54:12;;;;;;;2.00;1.90;;;23.40;56.70;;;;;;4915098;29;20476;-78
2023/03/22 04:56:42;;;;;;;1.90;1.80;;;23.40;56.60;;;;;;4940133;28;20456;-78
2023/03/22 04:59:11;;;;;;;1.60;1.50;;;23.50;56.60;;;;;;4939907;29;20459;-75
2023/03/22 05:01:41;;;;;;;1.40;1.33;;;23.50;56.50;;;;;;4939742;29;20479;-75
2023/03/22 05:04:15;;;;;;;2.30;1.90;;;23.50;56.50;;;;;;4935022;29;20828;-76
2023/03/22 05:06:44;;;;;;;1.70;1.60;;;23.50;56.50;;;;;;4934685;29;20472;-76
2023/03/22 05:09:20;;;;;;;2.50;2.00;;;23.50;56.40;;;;;;4932868;29;20463;-75
2023/03/22 05:11:52;;;;;;;1.80;1.70;;;23.40;56.40;;;;;;4933100;29;20465;-76
2023/03/22 05:14:27;;;;;;;2.10;2.00;;;23.40;56.40;;;;;;4930987;29;20464;-75
2023/03/22 05:16:56;;;;;;;2.10;1.90;;;23.40;56.40;;;;;;4940884;29;20476;-78
2023/03/22 05:19:24;;;;;;;1.93;1.83;;;23.40;56.40;;;;;;4930115;29;20498;-77
2023/03/22 05:21:57;;;;;;;2.40;2.20;;;23.40;56.50;;;;;;4937020;29;20507;-77
2023/03/22 05:24:38;;;;;;;1.80;1.70;;;23.40;56.40;;;;;;4927962;29;20471;-75
2023/03/22 05:27:13;;;;;;;2.10;1.90;;;23.40;56.50;;;;;;4926435;29;20494;-75
2023/03/22 05:29:44;;;;;;;1.80;1.70;;;23.40;56.50;;;;;;4941976;29;20454;-79
2023/03/22 05:32:28;;;;;;;1.73;1.63;;;23.30;56.50;;;;;;4932085;29;20480;-75
2023/03/22 05:34:56;;;;;;;1.60;1.50;;;23.30;56.50;;;;;;4932231;29;20466;-75
2023/03/22 05:37:33;;;;;;;1.93;1.83;;;23.30;56.50;;;;;;4936849;29;20464;-76
2023/03/22 05:40:04;;;;;;;2.00;1.90;;;23.30;56.50;;;;;;4931131;29;20547;-75
2023/03/22 05:42:36;;;;;;;2.30;2.20;;;23.30;56.50;;;;;;4933928;29;20472;-77
2023/03/22 05:45:17;;;;;;;2.00;1.90;;;23.30;56.50;;;;;;4957377;28;20474;-77
2023/03/22 05:47:50;;;;;;;1.97;1.87;;;23.30;56.60;;;;;;4949611;28;20479;-76
2023/03/22 05:50:22;;;;;;;2.10;2.00;;;23.30;56.60;;;;;;4927948;29;20461;-77
2023/03/22 05:52:51;;;;;;;2.60;2.40;;;23.30;56.60;;;;;;4925328;29;20469;-75
2023/03/22 05:55:38;;;;;;;2.33;2.13;;;23.30;56.50;;;;;;4931222;29;20455;-75
2023/03/22 05:58:07;;;;;;;2.30;2.20;;;23.20;56.50;;;;;;4932554;29;20562;-79
2023/03/22 06:00:40;;;;;;;2.50;2.30;;;23.30;56.40;;;;;;4926825;29;20956;-75
2023/03/22 06:03:28;;;;;;;2.00;1.90;;;23.30;56.40;;;;;;4932203;29;20943;-75
2023/03/22 06:06:09;;;;;;;2.03;1.90;;;23.20;56.50;;;;;;4945884;29;20533;-76
2023/03/22 06:08:55;;;;;;;2.00;1.80;;;23.20;56.40;;;;;;4929416;29;20470;-75
2023/03/22 06:11:43;;;;;;;1.60;1.50;;;23.30;56.30;;;;;;4926346;29;21001;-77
2023/03/22 06:14:11;;;;;;;2.73;2.27;;;23.30;56.10;;;;;;4933472;29;20499;-76
2023/03/22 06:17:12;;;;;;;2.13;2.00;;;23.30;56.00;;;;;;4920844;29;20464;-74
2023/03/22 06:19:41;;;;;;;2.27;2.10;;;23.40;56.10;;;;;;4926153;29;20467;-75
2023/03/22 06:22:11;;;;;;;1.80;1.70;;;23.40;56.10;;;;;;4928220;29;20497;-75
2023/03/22 06:24:39;;;;;;;1.93;1.83;;;23.40;56.10;;;;;;4924894;29;20469;-79
2023/03/22 06:27:10;;;;;;;4.00;1.80;;;23.40;56.10;;;;;;4927415;29;20469;-75
2023/03/22 06:29:40;;;;;;;1.90;1.80;;;23.40;56.10;;;;;;4931888;29;20533;-75
2023/03/22 06:32:08;;;;;;;2.20;2.00;;;23.40;56.10;;;;;;4929128;29;20460;-75
2023/03/22 06:34:38;;;;;;;2.20;1.90;;;23.40;56.20;;;;;;4926577;29;20545;-77
2023/03/22 06:37:07;;;;;;;1.93;1.73;;;23.40;56.20;;;;;;4930151;29;20494;-75
2023/03/22 06:39:38;;;;;;;1.60;1.50;;;23.40;56.20;;;;;;4940960;29;20580;-75
2023/03/22 06:42:07;;;;;;;2.20;1.90;;;23.40;56.20;;;;;;4928794;29;20456;-76
2023/03/22 06:44:35;;;;;;;1.90;1.80;;;23.30;56.20;;;;;;4928398;29;20480;-75
2023/03/22 06:47:13;;;;;;;1.93;1.80;;;23.30;56.20;;;;;;4926610;29;20464;-74
2023/03/22 06:49:58;;;;;;;3.00;1.80;;;23.30;56.30;;;;;;4929956;29;20984;-79
2023/03/22 06:52:39;;;;;;;2.57;2.07;;;23.30;56.30;;;;;;4928406;29;20476;-75
2023/03/22 06:55:09;;;;;;;2.33;2.13;;;23.30;56.30;;;;;;4930251;29;21084;-76
2023/03/22 06:57:37;;;;;;;2.40;2.20;;;23.30;56.30;;;;;;4931354;29;20583;-76
2023/03/22 07:00:07;;;;;;;2.80;1.80;;;23.30;56.40;;;;;;4928218;29;21015;-74
2023/03/22 07:02:35;;;;;;;2.00;1.80;;;23.30;56.40;;;;;;4924660;29;20511;-75
2023/03/22 07:05:25;;;;;;;2.43;1.90;;;23.30;56.40;;;;;;4929175;29;20445;-76
2023/03/22 07:07:54;;;;;;;5.03;2.40;;;23.30;56.50;;;;;;4929405;29;20477;-75
2023/03/22 07:10:22;;;;;;;2.00;1.90;;;23.30;56.40;;;;;;4927280;29;20464;-77
2023/03/22 07:12:50;;;;;;;1.70;1.60;;;23.30;56.30;;;;;;4931306;29;20470;-75
2023/03/22 07:15:23;;;;;;;2.40;2.20;;;23.30;56.30;;;;;;4942086;29;20476;-75
2023/03/22 07:18:02;;;;;;;2.27;2.07;;;23.30;56.40;;;;;;4930356;29;20908;-77
2023/03/22 07:20:35;;;;;;;2.10;1.83;;;23.30;56.30;;;;;;4931598;29;20851;-75
2023/03/22 07:23:04;;;;;;;2.10;2.00;;;23.30;56.50;;;;;;4931651;29;20489;-75
2023/03/22 07:25:39;;;;;;;2.43;1.80;;;23.30;56.50;;;;;;4927074;29;20467;-75
2023/03/22 07:28:27;;;;;;;1.73;1.63;;;23.30;56.40;;;;;;4934400;29;20479;-74
2023/03/22 07:31:01;;;;;;;2.33;2.23;;;23.30;56.40;;;;;;4932488;29;20831;-76
2023/03/22 07:33:32;;;;;;;1.93;1.80;;;23.30;56.40;;;;;;4935527;29;20996;-77
2023/03/22 07:36:03;;;;;;;3.23;2.73;;;23.30;56.50;;;;;;4934594;29;20946;-75
2023/03/22 07:38:31;;;;;;;2.80;2.37;;;23.30;56.60;;;;;;4935135;29;20460;-75
2023/03/22 07:41:00;;;;;;;1.60;1.50;;;23.30;56.50;;;;;;4932861;29;20466;-75
2023/03/22 07:43:41;;;;;;;2.70;1.73;;;23.30;56.50;;;;;;4926645;29;20575;-75
2023/03/22 07:46:23;;;;;;;2.20;2.00;;;23.30;56.50;;;;;;4926725;29;21142;-76
2023/03/22 07:49:16;;;;;;;2.33;2.20;;;23.30;56.50;;;;;;4923362;29;20470;-76
2023/03/22 07:52:05;;;;;;;2.50;2.30;;;23.30;56.40;;;;;;4931772;29;20473;-75
2023/03/22 07:54:33;;;;;;;2.40;2.20;;;23.30;56.60;;;;;;4947842;29;21897;-78
2023/03/22 07:57:05;;;;;;;1.90;1.80;;;23.30;56.60;;;;;;4931094;29;20465;-76
2023/03/22 07:59:37;;;;;;;1.93;1.83;;;23.30;56.60;;;;;;4945695;28;20468;-77
2023/03/22 08:02:10;;;;;;;1.97;1.87;;;23.30;56.80;;;;;;4931867;29;20457;-76
2023/03/22 08:04:45;;;;;;;1.92;1.83;;;23.30;56.70;;;;;;4933219;29;20547;-78
2023/03/22 08:07:32;;;;;;;3.33;2.00;;;23.30;56.90;;;;;;4935205;29;20560;-76
2023/03/22 08:10:01;;;;;;;3.37;1.97;;;23.40;57.10;;;;;;4935101;29;20952;-75
2023/03/22 08:12:31;;;;;;;2.03;1.87;;;23.40;57.00;;;;;;4935773;29;20908;-77
2023/03/22 08:15:09;;;;;;;2.20;2.10;;;23.40;57.10;;;;;;4934449;29;20520;-76
2023/03/22 08:17:37;;;;;;;4.90;2.20;;;23.50;57.10;;;;;;4932324;29;20513;-76
2023/03/22 08:20:11;;;;;;;2.40;2.20;;;23.50;57.00;;;;;;4915590;29;20896;-78
2023/03/22 08:22:47;;;;;;;2.00;1.90;;;23.50;57.00;;;;;;4934951;29;20492;-77
2023/03/22 08:25:19;;;;;;;1.83;1.73;;;23.50;57.10;;;;;;4935268;29;20924;-80
2023/03/22 08:27:47;;;;;;;2.73;2.03;;;23.50;57.00;;;;;;4950066;29;20879;-78
2023/03/22 08:30:16;;;;;;;2.63;2.10;;;23.60;57.00;;;;;;4950656;29;20467;-77
2023/03/22 08:32:44;;;;;;;2.73;2.53;;;23.60;57.00;;;;;;4935384;29;20452;-76
2023/03/22 08:35:12;;;;;;;3.27;2.43;;;23.60;57.00;;;;;;4933994;29;20993;-76
2023/03/22 08:37:41;;;;;;;4.50;2.20;;;23.60;57.00;;;;;;4935189;29;20820;-80
2023/03/22 08:40:12;;;;;;;3.80;2.13;;;23.60;57.00;;;;;;4935267;29;20523;-75
2023/03/22 08:42:45;;;;;;;2.60;2.13;;;23.60;57.00;;;;;;4932517;29;20464;-75
2023/03/22 08:45:13;;;;;;;2.03;1.93;;;23.60;57.00;;;;;;4916177;29;20860;-77
2023/03/22 08:47:51;;;;;;;2.30;2.13;;;23.70;57.00;;;;;;4927707;29;20530;-77
2023/03/22 08:50:25;;;;;;;3.03;2.20;;;23.70;57.10;;;;;;4934078;29;20464;-77
2023/03/22 08:53:07;;;;;;;4.60;1.63;;;23.70;57.10;;;;;;4935416;29;20501;-75
2023/03/22 08:55:38;;;;;;;2.80;2.00;;;23.70;57.10;;;;;;4934919;29;20464;-75
2023/03/22 08:58:10;;;;;;;2.10;2.00;;;23.70;57.20;;;;;;4936009;29;20496;-78
2023/03/22 09:01:00;;;;;;;1.73;1.60;;;23.70;57.20;;;;;;4935385;29;20480;-77
2023/03/22 09:03:48;;;;;;;2.27;2.10;;;23.70;57.10;;;;;;4935474;29;20556;-79
2023/03/22 09:06:16;;;;;;;2.43;2.17;;;23.70;57.10;;;;;;4934137;29;20893;-76
2023/03/22 09:08:44;;;;;;;1.90;1.80;;;23.70;57.10;;;;;;4931524;29;20531;-78
2023/03/22 09:11:16;;;;;;;2.20;2.10;;;23.70;57.10;;;;;;4935158;29;20464;-77
2023/03/22 09:13:46;;;;;;;3.63;2.00;;;23.70;57.10;;;;;;4932308;29;20564;-76
2023/03/22 09:16:15;;;;;;;4.63;1.70;;;23.70;57.10;;;;;;4941774;29;20466;-76
2023/03/22 09:18:45;;;;;;;2.20;2.00;;;23.70;57.10;;;;;;4918620;29;20473;-77
2023/03/22 09:21:17;;;;;;;1.90;1.80;;;23.70;57.10;;;;;;4949988;29;20568;-77
2023/03/22 09:23:52;;;;;;;1.87;1.77;;;23.70;57.10;;;;;;4939670;29;20458;-78
2023/03/22 09:26:27;;;;;;;2.00;1.90;;;23.70;57.00;;;;;;4950437;29;20460;-77
2023/03/22 09:28:55;;;;;;;2.13;2.00;;;23.70;57.10;;;;;;4949871;29;21255;-76
2023/03/22 09:31:23;;;;;;;2.20;2.10;;;23.70;57.00;;;;;;4934053;29;20462;-76
2023/03/22 09:34:04;;;;;;;3.50;1.80;;;23.80;57.10;;;;;;4932828;29;21031;-79
2023/03/22 09:36:33;;;;;;;1.97;1.87;;;23.70;57.00;;;;;;4934048;29;20531;-76
2023/03/22 09:39:04;;;;;;;2.03;1.60;;;23.80;57.00;;;;;;4945895;29;20502;-76
2023/03/22 09:41:39;;;;;;;1.67;1.50;;;23.80;56.70;;;;;;4915402;29;20463;-75
2023/03/22 09:44:13;;;;;;;3.53;1.70;;;23.80;56.60;;;;;;4925564;29;20561;-75
2023/03/22 09:46:44;;;;;;;2.03;1.93;;;23.80;56.60;;;;;;4933029;29;20475;-76
2023/03/22 09:49:16;;;;;;;2.83;1.60;;;23.80;56.60;;;;;;4932584;29;20605;-76
2023/03/22 09:51:46;;;;;;;2.07;1.80;;;23.80;56.90;;;;;;4939594;29;20557;-77
2023/03/22 09:54:18;;;;;;;2.00;1.60;;;23.80;56.90;;;;;;4934177;29;20456;-75
2023/03/22 09:56:53;;;;;;;2.00;1.80;;;23.80;56.90;;;;;;4935043;29;20461;-77
2023/03/22 09:59:27;;;;;;;1.87;1.77;;;23.80;56.90;;;;;;4925310;29;20502;-76
2023/03/22 10:01:59;;;;;;;4.23;2.10;;;23.80;56.90;;;;;;4921594;29;20457;-76
2023/03/22 10:04:41;;;;;;;2.87;1.73;;;23.90;56.80;;;;;;4934128;29;20481;-76
2023/03/22 10:07:23;;;;;;;2.60;1.87;;;23.90;56.70;;;;;;4932883;29;20547;-75
2023/03/22 10:10:03;;;;;;;1.47;1.37;;;23.90;56.70;;;;;;4928321;29;20474;-77
2023/03/22 10:12:37;;;;;;;1.63;1.33;;;23.90;56.70;;;;;;4932912;29;21321;-77
2023/03/22 10:15:10;;;;;;;2.13;2.00;;;23.90;56.70;;;;;;4931909;29;20807;-76
2023/03/22 10:17:41;;;;;;;5.90;1.73;;;24.00;56.70;;;;;;4929199;29;20570;-76
2023/03/22 10:20:19;;;;;;;3.60;1.90;;;23.90;56.80;;;;;;4930044;29;20467;-75
2023/03/22 10:22:49;;;;;;;3.47;1.73;;;24.00;56.70;;;;;;4932337;29;20499;-75
2023/03/22 10:25:27;;;;;;;1.73;1.63;;;24.00;56.70;;;;;;4929102;29;21183;-78
2023/03/22 10:27:57;;;;;;;3.83;2.20;;;24.00;56.70;;;;;;4929729;29;20473;-74
2023/03/22 10:30:28;;;;;;;1.70;1.60;;;24.00;56.70;;;;;;4934062;29;20460;-74
2023/03/22 10:33:00;;;;;;;2.30;1.80;;;24.00;56.70;;;;;;4928769;29;20497;-75
2023/03/22 10:35:30;;;;;;;1.90;1.80;;;24.00;56.80;;;;;;4923878;29;20457;-80
2023/03/22 10:38:00;;;;;;;2.70;2.20;;;24.00;56.60;;;;;;4933124;29;20481;-75
2023/03/22 10:40:31;;;;;;;5.80;2.13;;;24.10;56.50;;;;;;4947457;29;20457;-75
2023/03/22 10:43:06;;;;;;;2.27;1.60;;;24.10;56.50;;;;;;4942828;29;20459;-77
2023/03/22 10:45:36;;;;;;;1.70;1.60;;;24.10;56.40;;;;;;4935167;29;21123;-79
2023/03/22 10:48:09;;;;;;;1.93;1.30;;;24.10;56.30;;;;;;4933843;29;20448;-75
2023/03/22 10:50:41;;;;;;;1.80;1.70;;;24.10;56.20;;;;;;4932185;29;20980;-76
2023/03/22 10:53:17;;;;;;;1.50;1.40;;;24.20;56.10;;;;;;4933381;29;20940;-75
2023/03/22 10:55:45;;;;;;;1.60;1.50;;;24.20;56.20;;;;;;4942599;29;20544;-75
2023/03/22 10:58:16;;;;;;;2.17;2.07;;;24.30;55.80;;;;;;4926724;29;20550;-77
2023/03/22 11:00:47;;;;;;;1.67;1.57;;;24.40;55.50;;;;;;4930431;29;20494;-77
2023/03/22 11:03:31;;;;;;;1.30;1.30;;;24.60;55.30;;;;;;4935007;29;20798;-75
2023/03/22 11:06:06;;;;;;;1.57;1.50;;;24.80;54.80;;;;;;4933552;29;20490;-75
2023/03/22 11:08:43;;;;;;;1.63;1.50;;;25.10;54.40;;;;;;4936966;28;20495;-76
2023/03/22 11:11:22;;;;;;;1.70;1.60;;;25.30;53.90;;;;;;4936812;29;20519;-76
2023/03/22 11:14:06;;;;;;;2.10;1.67;;;25.50;53.50;;;;;;4933937;29;20451;-74
2023/03/22 11:16:43;;;;;;;2.03;1.83;;;25.60;53.20;;;;;;4924407;29;20563;-76
2023/03/22 11:19:25;;;;;;;1.90;1.60;;;25.70;52.90;;;;;;4922443;29;20834;-74
2023/03/22 11:21:55;;;;;;;1.80;1.70;;;25.80;52.70;;;;;;4928155;29;20836;-76
2023/03/22 11:24:25;;;;;;;2.50;2.30;;;26.00;52.50;;;;;;4914880;29;20472;-78
2023/03/22 11:27:06;;;;;;;3.13;2.40;;;26.10;52.20;;;;;;4926370;29;20511;-75
2023/03/22 11:29:43;;;;;;;3.07;2.87;;;26.20;51.80;;;;;;4929185;29;20447;-77
2023/03/22 11:32:25;;;;;;;2.97;2.77;;;26.30;51.70;;;;;;4928107;29;20463;-75
2023/03/22 11:35:11;;;;;;;4.13;3.83;;;26.40;51.60;;;;;;4923441;29;20971;-75
2023/03/22 11:37:41;;;;;;;3.80;3.50;;;26.40;51.40;;;;;;4926384;29;20499;-76
2023/03/22 11:40:15;;;;;;;4.23;4.03;;;26.50;51.30;;;;;;4930594;29;20897;-76
2023/03/22 11:42:44;;;;;;;3.63;3.43;;;26.60;51.20;;;;;;4937571;29;20558;-75
2023/03/22 11:45:18;;;;;;;5.93;5.53;;;26.60;51.20;;;;;;4937180;29;20543;-75
2023/03/22 11:47:46;;;;;;;5.03;4.70;;;26.60;51.10;;;;;;4930341;29;20471;-75
2023/03/22 11:50:26;;;;;;;5.43;5.13;;;26.60;51.10;;;;;;4924417;29;20460;-75
2023/03/22 11:52:55;;;;;;;6.10;5.80;;;26.60;51.10;;;;;;4929742;29;20829;-76
2023/03/22 11:55:25;;;;;;;5.80;5.40;;;26.60;51.10;;;;;;4924833;29;20550;-75
2023/03/22 11:57:55;;;;;;;7.20;6.80;;;26.50;51.20;;;;;;4925139;29;20560;-74
2023/03/22 12:00:27;;;;;;;7.53;7.07;;;26.50;51.30;;;;;;4926752;29;20532;-75
2023/03/22 12:02:59;;;;;;;7.40;6.90;;;26.40;51.40;;;;;;4928447;29;20474;-74
2023/03/22 12:05:30;;;;;;;7.80;7.27;;;26.30;51.50;;;;;;4923781;29;20827;-75
2023/03/22 12:08:01;;;;;;;6.97;6.53;;;26.10;52.00;;;;;;4928968;29;20544;-77
2023/03/22 12:10:33;;;;;;;7.80;7.40;;;26.10;52.10;;;;;;4925739;29;21439;-77
2023/03/22 12:13:07;;;;;;;8.50;7.80;;;26.00;52.30;;;;;;4930888;29;20495;-77
2023/03/22 12:15:40;;;;;;;7.53;7.10;;;26.00;52.40;;;;;;4931722;29;20542;-77
2023/03/22 12:18:15;;;;;;;8.00;7.40;;;26.10;52.40;;;;;;4939613;29;20462;-79
2023/03/22 12:20:49;;;;;;;8.80;8.27;;;26.20;52.20;;;;;;4927460;29;21233;-78
2023/03/22 12:23:19;;;;;;;8.33;7.73;;;26.30;52.10;;;;;;4933331;29;20535;-77
2023/03/22 12:25:52;;;;;;;8.57;8.03;;;26.40;51.90;;;;;;4933366;29;20484;-76
2023/03/22 12:28:24;;;;;;;7.30;6.90;;;26.50;51.70;;;;;;4929121;29;20484;-77
2023/03/22 12:30:57;;;;;;;8.10;7.60;;;26.50;51.60;;;;;;4930426;29;21186;-78
2023/03/22 12:33:29;;;;;;;7.70;7.17;;;26.60;51.50;;;;;;4931393;29;21029;-79
2023/03/22 12:36:01;;;;;;;7.20;6.80;;;26.60;51.40;;;;;;4935695;29;20487;-80
2023/03/22 12:38:37;;;;;;;6.80;6.40;;;26.50;51.40;;;;;;4931033;29;20462;-77
2023/03/22 12:41:10;;;;;;;6.60;6.20;;;26.40;51.50;;;;;;4933586;29;20493;-79
2023/03/22 12:43:48;;;;;;;6.67;6.17;;;26.40;51.70;;;;;;4931445;29;20509;-80
2023/03/22 12:46:22;;;;;;;7.60;7.00;;;26.30;51.70;;;;;;4933019;29;20495;-77
2023/03/22 12:48:53;;;;;;;7.20;6.70;;;26.20;51.90;;;;;;4937978;29;20951;-78
2023/03/22 12:51:22;;;;;;;6.30;5.90;;;26.10;52.10;;;;;;4934696;29;20456;-77
2023/03/22 12:53:52;;;;;;;6.03;5.63;;;25.90;52.30;;;;;;4938019;29;20456;-76
2023/03/22 12:56:24;;;;;;;6.43;6.03;;;25.90;52.50;;;;;;4936801;29;20520;-77
2023/03/22 12:58:56;;;;;;;5.70;5.30;;;25.80;52.60;;;;;;4930021;29;20475;-79
2023/03/22 13:01:35;;;;;;;5.93;5.47;;;25.80;52.70;;;;;;4936854;29;20456;-77
2023/03/22 13:04:46;;;;;;;6.23;5.83;;;25.80;52.60;;;;;;4932017;29;20468;-76
2023/03/22 13:07:17;;;;;;;6.23;5.50;;;25.80;52.60;;;;;;4927505;29;20594;-78
2023/03/22 13:09:47;;;;;;;5.67;5.33;;;25.80;52.70;;;;;;4928424;29;20488;-80
2023/03/22 13:12:36;;;;;;;6.50;5.80;;;25.70;52.70;;;;;;4920037;29;20464;-76
2023/03/22 13:15:29;;;;;;;5.97;5.37;;;25.70;52.90;;;;;;4918380;29;21015;-77
2023/03/22 13:21:15;;;;;;;5.47;4.97;;;25.70;52.90;;;;;;5100349;22;21104;-70
2023/03/22 13:24:00;;;;;;;4.53;4.23;;;25.70;53.00;;;;;;5072740;28;20472;-69
2023/03/22 13:26:35;;;;;;;5.13;4.73;;;25.70;53.10;;;;;;5082011;28;20542;-70
2023/03/22 13:29:11;;;;;;;5.10;4.80;;;25.70;53.20;;;;;;5104580;28;20478;-70
2023/03/22 13:31:44;;;;;;;4.70;4.40;;;25.70;53.20;;;;;;5101595;28;21224;-71